Rushville, IL

3:01 PM CDT on July 29, 2014 (GMT -0500)
Jacksonville Municipal (KIJX) Elev 623 ft | 39.77 °N, 90.24 °W | Change Station

Current weather conditions updated 26 minutes ago

Scattered Clouds
Scattered Clouds
78 °F
Feels Like 78 °F
N
6
Wind Variable Wind from West

Today is forecast to be Warmer than yesterday.

Today
High -- | Low -- °F
--% Chance of Precip.
Yesterday
High -- | Low -- °F
Precip. -- in
5:57 AM 8:19 PM
Waxing Crescent, 7% visible
Pressure 30.13 in
Visibility 10.0 miles
Clouds Scattered Clouds 5000 ft
Scattered Clouds 10000 ft
Dew Point 57 °F
Humidity 48%
Rainfall 0.00 in
Snow Depth Not available.
UV 8 out of 12
Pollen 6.70 out of 12
Air Quality Not available.
Flu Activity Not available.
METAR KIJX 291935Z AUTO 28005KT 10SM SCT050 SCT100 25/14 A3013 RMK AO2 T02540138

More Conditions Fewer Conditions

Pressure 30.13 in
Visibility 10.0 miles
Clouds Scattered Clouds 5000 ft
Scattered Clouds 10000 ft
Dew Point 57 °F
Humidity 48%
Rainfall 0.00 in
Snow Depth Not available.
UV 8 out of 12
Pollen 6.70 out of 12
Air Quality Not available.
Flu Activity Not available.
METAR KIJX 291935Z AUTO 28005KT 10SM SCT050 SCT100 25/14 A3013 RMK AO2 T02540138

More Conditions Fewer Conditions

10-Day Weather Forecast

Almanac

Astronomy

Jul. 29, 2014 Rise Set
Actual Time 5:57 AM CDT 8:19 PM CDT
Civil Twilight 5:26 AM CDT 8:49 PM CDT
Nautical Twilight 4:49 AM CDT 9:27 PM CDT
Astronomical Twilight 4:07 AM CDT 10:09 PM CDT
Moon 8:34 AM CDT 9:31 PM CDT
Length of Visible Light 15h 22m
Length of Day
14h 21m
Tomorrow will be 1m 56s shorter.
Waxing Crescent, 7% of the Moon is Illuminated
Today
Waxing Crescent
Aug 3
First Quarter
Aug 10
Full
Aug 17
Last Quarter
Aug 25
New

Today's Extremes

State Highs State Lows

Community

WunderPhotos

Upload Photos

1,738,843 photos uploaded!

Nearby

Snow Depth

Station Depth Elevation
No new snow has been reported.

Earthquake Activity

City Distance Mag. Time & Date
No recent earthquake activity has been reported nearby.
Minimum magnitude displayed is 2.5.

Coastal Water Temperatures

Place Temperature
No Stations Reporting

Nearby Weather Stations

Station Location Temp. Heat Index Dew Point Humidity Wind Precip. Elev Updated Type
Rushville (Inner City), Rushville, IL 79.7 °F 80 °F 56 °F 45% WNW  at  3.1 mph 0.00 in / hr 666 ft 3:00 PM CDT Rapid Fire
Rushville, Rushville, IL 78.7 °F 80 °F 61 °F 54% ENE  at  0.0 mph 0.00 in / hr 607 ft 3:00 PM CDT Rapid Fire
Astoria, Astoria, IL 78.4 °F 79 °F 56 °F 46% WNW  at  3.0 mph 0.00 in / hr 712 ft 2:58 PM CDT Normal
St. Mary School, Mount Sterling, IL 82.4 °F 82 °F 56 °F 41% East  at  6.9 mph 0.00 in / hr 728 ft 3:00 PM CDT Rapid Fire
Elkhorn, Mount Sterling, IL 79.9 °F 80 °F 57 °F 45% West  at  6.0 mph 0.00 in / hr 689 ft 3:00 PM CDT Rapid Fire
ARS W9PFD, Adair, IL 76.0 °F 78 °F 61 °F 60% NW  at  8.0 mph 0.00 in / hr 650 ft 3:00 PM CDT Normal

Show More Stations Show Fewer Stations